ENTC

Tromsø Airport

Tromsø, Norway
METAR ENTC 151850Z 03008KT 9999 SCT040 M03/M05 Q1004 NOSIG RMK WIND 2600FT 10008KT
Observed Flight Rules
Feb-15 @ 18:50 UTC (15 minutes ago) Visual Flight Rules
Wind Visibility Clouds
30° at 8 knots 10,000+ meters
  • Scattered at 4,000' AGL
Temperatures Readings
Current -3°C / 27°F
Dewpoint -5°C / 23°F
Humidity 86%
Altimeter 29.65" Hg
Pressure 1003.92 hPa
Elevation 10
METAR ENTC 151850Z 03008KT 9999 SCT040 M03/M05 Q1004 NOSIG RMK WIND 2600FT 10008KT
Observed Flight Rules
Feb-15 @ 18:50 UTC
(15 minutes ago)
VFR
Wind Visibility
30° at 8 knots 10,000+ meters
Clouds
  • Scattered at 4,000' AGL
Temperature Dewpoint
-3°C / 27°F -5°C / 23°F
Humidity Altimeter Pressure
86% 29.65" Hg 1003.92 hPa